createdAt,value
2022-09-15T00:01:12.281Z,66.88
2022-09-15T00:03:40.649Z,66.67
2022-09-15T00:06:08.638Z,65.94
2022-09-15T00:08:36.191Z,65.77
2022-09-15T00:11:12.078Z,66.47
2022-09-15T00:13:40.511Z,66.48
2022-09-15T00:16:11.647Z,66.22
2022-09-15T00:18:43.212Z,66.15
2022-09-15T00:21:23.218Z,66.87
2022-09-15T00:23:50.942Z,66.85
2022-09-15T00:26:22.276Z,66.64
2022-09-15T00:28:49.752Z,66.77
2022-09-15T00:31:20.386Z,67.01
2022-09-15T00:33:49.766Z,67.23
2022-09-15T00:36:17.943Z,67.29
2022-09-15T00:38:45.840Z,66.68
2022-09-15T00:41:17.167Z,66.44
2022-09-15T00:43:56.394Z,65.99
2022-09-15T00:46:37.402Z,65.92
2022-09-15T00:49:11.798Z,65.39
2022-09-15T00:52:03.274Z,64.68
2022-09-15T00:54:41.507Z,64.21
2022-09-15T00:57:16.062Z,65.04
2022-09-15T00:59:44.042Z,65.21
2022-09-15T01:02:25.050Z,65.66
2022-09-15T01:04:58.204Z,65.53
2022-09-15T01:07:56.573Z,65.95
2022-09-15T01:10:31.996Z,65.74
2022-09-15T01:13:06.051Z,65.08
2022-09-15T01:15:48.029Z,64.97
2022-09-15T01:18:53.877Z,65.38
2022-09-15T01:22:17.457Z,65.87
2022-09-15T01:25:08.858Z,65.39
2022-09-15T01:27:44.563Z,64.95
2022-09-15T01:30:22.373Z,66.01
2022-09-15T01:33:16.791Z,65.55
2022-09-15T01:35:52.860Z,66.01
2022-09-15T01:38:48.678Z,67.12
2022-09-15T01:41:35.633Z,67.05
2022-09-15T01:44:11.535Z,66.76
2022-09-15T01:46:52.604Z,66.19
2022-09-15T01:49:26.291Z,66.36
2022-09-15T01:51:54.753Z,65.68
2022-09-15T01:54:30.845Z,65.02
2022-09-15T01:56:58.251Z,65.21
2022-09-15T01:59:25.703Z,64.92
2022-09-15T02:02:04.679Z,65.28
2022-09-15T02:04:46.419Z,65.00
2022-09-15T02:07:44.910Z,65.06
2022-09-15T02:10:22.014Z,64.55
2022-09-15T02:13:10.033Z,64.29
2022-09-15T02:15:48.476Z,64.27
2022-09-15T02:18:34.625Z,64.42
2022-09-15T02:21:18.254Z,65.06
2022-09-15T02:23:54.214Z,64.61
2022-09-15T02:26:26.606Z,64.59
2022-09-15T02:28:56.434Z,64.52
2022-09-15T02:31:25.544Z,64.59
2022-09-15T02:33:59.234Z,65.00
2022-09-15T02:36:29.070Z,65.35
2022-09-15T02:39:11.696Z,64.63
2022-09-15T02:41:40.445Z,64.06
2022-09-15T02:44:09.847Z,63.99
2022-09-15T02:46:37.203Z,63.63
2022-09-15T02:49:04.256Z,64.07
2022-09-15T02:51:31.436Z,63.72
2022-09-15T02:53:58.459Z,63.34
2022-09-15T02:56:25.598Z,63.33
2022-09-15T02:58:52.722Z,63.87
2022-09-15T03:01:19.967Z,63.78
2022-09-15T03:03:47.178Z,63.33
2022-09-15T03:06:17.912Z,63.03
2022-09-15T03:08:51.502Z,62.92
2022-09-15T03:11:20.977Z,62.61
2022-09-15T03:13:52.550Z,63.18
2022-09-15T03:16:19.951Z,62.22
2022-09-15T03:18:47.182Z,62.45
2022-09-15T03:21:17.077Z,63.27
2022-09-15T03:23:44.647Z,63.07
2022-09-15T03:26:12.686Z,62.31
2022-09-15T03:28:40.646Z,62.57
2022-09-15T03:31:09.403Z,62.46
2022-09-15T03:33:37.403Z,61.55
2022-09-15T03:36:05.398Z,61.34
2022-09-15T03:38:32.745Z,61.52
2022-09-15T03:41:10.599Z,62.31
2022-09-15T03:43:39.021Z,62.22
2022-09-15T03:46:10.044Z,61.75
2022-09-15T03:48:37.717Z,62.29
2022-09-15T03:51:05.776Z,62.14
2022-09-15T03:53:35.478Z,62.18
2022-09-15T03:56:27.921Z,62.05
2022-09-15T03:58:55.109Z,62.34
2022-09-15T04:01:23.527Z,62.40
2022-09-15T04:03:51.755Z,62.82
2022-09-15T04:06:21.031Z,62.65
2022-09-15T04:08:49.748Z,62.22
2022-09-15T04:11:18.337Z,62.47
2022-09-15T04:13:46.265Z,62.49
2022-09-15T04:16:18.158Z,62.01
2022-09-15T04:18:45.888Z,61.99
2022-09-15T04:21:16.911Z,62.19
2022-09-15T04:23:44.616Z,62.47
2022-09-15T04:26:25.450Z,62.55
2022-09-15T04:28:52.552Z,61.91
2022-09-15T04:31:19.803Z,61.83
2022-09-15T04:33:47.812Z,61.99
2022-09-15T04:36:21.243Z,61.94
2022-09-15T04:38:49.209Z,61.43
2022-09-15T04:41:18.182Z,61.54
2022-09-15T04:43:45.840Z,61.54
2022-09-15T04:46:14.394Z,61.66
2022-09-15T04:48:41.768Z,61.70
2022-09-15T04:51:13.649Z,61.64
2022-09-15T04:53:42.029Z,61.46
2022-09-15T04:56:14.007Z,61.50
2022-09-15T04:58:44.818Z,61.62
2022-09-15T05:01:19.585Z,61.88
2022-09-15T05:03:47.629Z,61.96
2022-09-15T05:06:17.981Z,62.44
2022-09-15T05:08:52.992Z,62.57
2022-09-15T05:11:20.734Z,62.57
2022-09-15T05:13:48.494Z,62.47
2022-09-15T05:16:19.673Z,62.46
2022-09-15T05:18:49.469Z,62.34
2022-09-15T05:21:20.525Z,62.26
2022-09-15T05:23:48.903Z,62.51
2022-09-15T05:26:28.350Z,62.43
2022-09-15T05:28:56.787Z,60.65
2022-09-15T05:31:27.761Z,60.74
2022-09-15T05:33:55.264Z,59.73
2022-09-15T05:36:25.729Z,59.71
2022-09-15T05:38:56.612Z,59.40
2022-09-15T05:41:24.981Z,59.10
2022-09-15T05:43:53.731Z,58.68
2022-09-15T05:46:20.901Z,59.31
2022-09-15T05:48:48.150Z,58.01
2022-09-15T05:51:15.555Z,57.39
2022-09-15T05:53:42.922Z,57.73
2022-09-15T05:56:15.842Z,57.90
2022-09-15T05:58:46.006Z,58.10
2022-09-15T06:01:24.433Z,57.58
2022-09-15T06:03:52.859Z,57.27
2022-09-15T06:06:21.797Z,57.66
2022-09-15T06:08:58.681Z,57.34
2022-09-15T06:11:33.713Z,57.70
2022-09-15T06:14:03.251Z,56.85
2022-09-15T06:16:34.449Z,55.86
2022-09-15T06:19:02.134Z,56.58
2022-09-15T06:21:31.088Z,56.94
2022-09-15T06:24:01.186Z,57.63
2022-09-15T06:26:28.856Z,57.75
2022-09-15T06:29:00.424Z,57.19
2022-09-15T06:31:31.556Z,56.28
2022-09-15T06:33:59.561Z,56.29
2022-09-15T06:36:29.052Z,56.25
2022-09-15T06:38:57.060Z,55.61
2022-09-15T06:41:24.789Z,56.61
2022-09-15T06:43:53.083Z,55.73
2022-09-15T06:46:23.560Z,55.60
2022-09-15T06:48:52.003Z,54.70
2022-09-15T06:51:22.369Z,52.88
2022-09-15T06:53:49.753Z,53.08
2022-09-15T06:56:20.050Z,53.79
2022-09-15T06:58:50.715Z,53.36
2022-09-15T07:01:24.188Z,53.92
2022-09-15T07:03:51.987Z,53.61
2022-09-15T07:06:19.522Z,53.94
2022-09-15T07:08:47.384Z,53.31
2022-09-15T07:11:15.494Z,52.38
2022-09-15T07:13:43.285Z,52.07
2022-09-15T07:16:13.220Z,50.88
2022-09-15T07:18:43.265Z,50.82
2022-09-15T07:21:20.210Z,50.76
2022-09-15T07:23:49.131Z,51.79
2022-09-15T07:26:29.339Z,52.81
2022-09-15T07:29:01.577Z,53.12
2022-09-15T07:31:32.752Z,52.46
2022-09-15T07:34:01.175Z,51.98
2022-09-15T07:36:30.068Z,51.19
2022-09-15T07:38:57.654Z,52.01
2022-09-15T07:41:28.254Z,51.93
2022-09-15T07:43:58.232Z,51.35
2022-09-15T07:46:28.016Z,51.23
2022-09-15T07:48:58.185Z,51.16
2022-09-15T07:51:26.602Z,51.11
2022-09-15T07:53:54.312Z,50.32
2022-09-15T07:56:22.425Z,50.68
2022-09-15T07:58:49.896Z,50.08
2022-09-15T08:01:18.861Z,50.26
2022-09-15T08:03:49.654Z,49.94
2022-09-15T08:06:20.276Z,48.66
2022-09-15T08:08:47.987Z,49.25
2022-09-15T08:11:19.278Z,49.94
2022-09-15T08:13:52.592Z,50.08
2022-09-15T08:16:24.281Z,51.76
2022-09-15T08:18:53.822Z,51.26
2022-09-15T08:21:22.318Z,50.75
2022-09-15T08:23:56.210Z,51.09
2022-09-15T08:26:25.187Z,53.07
2022-09-15T08:28:52.916Z,53.38
2022-09-15T08:31:20.305Z,52.69
2022-09-15T08:33:53.388Z,52.07
2022-09-15T08:36:20.804Z,51.07
2022-09-15T08:38:48.248Z,51.78
2022-09-15T08:41:45.876Z,51.11
2022-09-15T08:44:21.852Z,51.45
2022-09-15T08:47:02.198Z,51.66
2022-09-15T08:50:05.675Z,50.74
2022-09-15T08:52:49.944Z,50.56
2022-09-15T08:55:26.416Z,49.81
2022-09-15T08:57:54.128Z,48.85
2022-09-15T09:00:21.318Z,48.34
2022-09-15T09:03:28.766Z,47.23
2022-09-15T09:06:26.803Z,47.00
2022-09-15T09:09:12.516Z,46.88
2022-09-15T09:12:23.193Z,46.48
2022-09-15T09:15:14.665Z,46.70
2022-09-15T09:18:03.107Z,45.92
2022-09-15T09:20:56.749Z,44.98
2022-09-15T09:23:29.001Z,45.42
2022-09-15T09:25:57.804Z,44.41
2022-09-15T09:28:50.464Z,44.68
2022-09-15T09:31:21.828Z,44.59
2022-09-15T09:34:20.896Z,45.32
2022-09-15T09:36:57.770Z,44.16
2022-09-15T09:39:27.630Z,43.90
2022-09-15T09:41:55.184Z,44.04
2022-09-15T09:44:31.769Z,44.44
2022-09-15T09:47:01.029Z,44.25
2022-09-15T09:49:34.611Z,43.46
2022-09-15T09:52:05.292Z,44.53
2022-09-15T09:54:35.521Z,44.40
2022-09-15T09:57:22.061Z,45.34
2022-09-15T09:59:52.575Z,44.90
2022-09-15T10:02:22.180Z,45.74
2022-09-15T10:04:53.422Z,45.89
2022-09-15T10:07:26.756Z,46.28
2022-09-15T10:09:58.087Z,46.43
2022-09-15T10:12:40.961Z,47.20
2022-09-15T10:15:34.401Z,47.19
2022-09-15T10:18:01.965Z,47.82
2022-09-15T10:20:49.969Z,47.14
2022-09-15T10:23:16.972Z,47.39
2022-09-15T10:25:58.697Z,48.05
2022-09-15T10:28:27.879Z,48.69
2022-09-15T10:31:15.929Z,49.74
2022-09-15T10:33:47.803Z,49.74
2022-09-15T10:36:30.171Z,49.45
2022-09-15T10:39:23.728Z,49.17
2022-09-15T10:42:10.385Z,49.06
2022-09-15T10:45:03.792Z,48.12
2022-09-15T10:47:43.249Z,47.62
2022-09-15T10:50:16.860Z,47.33
2022-09-15T10:53:17.514Z,46.62
2022-09-15T10:56:10.962Z,47.19
2022-09-15T10:59:18.560Z,45.91
2022-09-15T11:02:10.554Z,45.48
2022-09-15T11:05:22.759Z,45.06
2022-09-15T11:08:27.921Z,44.06
2022-09-15T11:11:22.751Z,44.52
2022-09-15T11:14:18.423Z,43.79
2022-09-15T11:16:57.477Z,43.80
2022-09-15T11:19:48.159Z,43.74
2022-09-15T11:22:29.152Z,43.12
2022-09-15T11:24:58.964Z,42.93
2022-09-15T11:27:28.133Z,42.48
2022-09-15T11:30:04.037Z,43.24
2022-09-15T11:32:42.590Z,41.34
2022-09-15T11:35:48.632Z,41.96
2022-09-15T11:39:00.776Z,41.69
2022-09-15T11:41:46.453Z,40.43
2022-09-15T11:44:17.067Z,40.47
2022-09-15T11:47:21.562Z,40.50
2022-09-15T11:50:19.900Z,38.20
2022-09-15T11:52:58.037Z,37.98
2022-09-15T11:55:49.432Z,38.38
2022-09-15T11:58:41.304Z,38.91
2022-09-15T12:01:11.238Z,38.85
2022-09-15T12:04:02.321Z,39.23
2022-09-15T12:07:23.293Z,39.74
2022-09-15T12:09:50.595Z,39.13
2022-09-15T12:12:20.619Z,38.08
2022-09-15T12:14:51.557Z,38.33
2022-09-15T12:17:43.768Z,38.65
2022-09-15T12:20:28.950Z,39.06
2022-09-15T12:23:20.637Z,39.31
2022-09-15T12:26:04.225Z,39.44
2022-09-15T12:28:58.546Z,39.37
2022-09-15T12:31:35.297Z,40.10
2022-09-15T12:34:09.547Z,39.65
2022-09-15T12:36:45.866Z,39.91
2022-09-15T12:39:58.564Z,39.41
2022-09-15T12:42:31.368Z,37.90
2022-09-15T12:45:26.005Z,39.14
2022-09-15T12:48:10.546Z,40.39
2022-09-15T12:50:41.290Z,40.75
2022-09-15T12:56:11.660Z,41.25
2022-09-15T12:58:47.051Z,41.63
2022-09-15T13:01:23.627Z,41.67
2022-09-15T13:03:59.382Z,42.43
2022-09-15T13:06:29.382Z,42.51
2022-09-15T13:09:02.481Z,43.57
2022-09-15T13:11:39.591Z,44.43
2022-09-15T13:14:11.649Z,44.68
2022-09-15T13:16:44.377Z,44.80
2022-09-15T13:19:33.298Z,45.47
2022-09-15T13:22:12.607Z,45.49
2022-09-15T13:25:03.939Z,44.84
2022-09-15T13:27:43.485Z,45.42
2022-09-15T13:30:41.569Z,45.94
2022-09-15T13:39:45.049Z,50.11
2022-09-15T13:42:40.197Z,51.19
2022-09-15T13:45:35.314Z,51.62
2022-09-15T13:48:37.352Z,52.87
2022-09-15T13:51:30.883Z,52.31
2022-09-15T13:54:06.966Z,52.41
2022-09-15T13:56:38.879Z,54.13
2022-09-15T13:59:16.247Z,54.04
2022-09-15T14:01:44.930Z,53.10
2022-09-15T14:04:24.435Z,53.09
2022-09-15T14:07:00.913Z,53.14
2022-09-15T14:09:44.692Z,53.07
2022-09-15T14:12:15.106Z,53.06
2022-09-15T14:14:56.314Z,53.34
2022-09-15T14:17:29.166Z,52.93
2022-09-15T14:20:01.202Z,52.85
2022-09-15T14:22:32.383Z,52.81
2022-09-15T14:25:06.969Z,53.00
2022-09-15T14:27:36.681Z,53.09
2022-09-15T14:30:16.549Z,53.43
2022-09-15T14:32:46.994Z,53.18
2022-09-15T14:35:29.486Z,52.95
2022-09-15T14:37:59.822Z,52.49
2022-09-15T14:40:35.261Z,51.44
2022-09-15T14:43:03.372Z,50.50
2022-09-15T14:48:30.765Z,50.10
2022-09-15T14:51:05.554Z,49.67
2022-09-15T14:53:36.264Z,49.31
2022-09-15T14:56:08.427Z,49.41
2022-09-15T14:58:42.560Z,48.92
2022-09-15T15:01:18.737Z,48.51
2022-09-15T15:04:06.141Z,48.98
2022-09-15T15:07:02.688Z,48.50
2022-09-15T15:10:01.300Z,48.22
2022-09-15T15:12:45.002Z,48.22
2022-09-15T15:15:14.701Z,48.22
2022-09-15T15:17:45.465Z,48.15
2022-09-15T15:20:22.962Z,48.12
2022-09-15T15:23:15.456Z,47.58
2022-09-15T15:25:43.745Z,48.19
2022-09-15T15:28:36.527Z,49.41
2022-09-15T15:31:16.577Z,49.35
2022-09-15T15:33:53.797Z,49.33
2022-09-15T15:36:24.058Z,49.00
2022-09-15T15:39:00.884Z,48.79
2022-09-15T15:41:35.562Z,49.05
2022-09-15T15:44:25.782Z,49.15
2022-09-15T15:47:22.748Z,49.38
2022-09-15T15:50:12.279Z,49.11
2022-09-15T15:52:41.483Z,49.29
2022-09-15T15:55:16.071Z,49.62
2022-09-15T15:57:43.794Z,49.45
2022-09-15T16:00:22.172Z,49.70
2022-09-15T16:02:51.277Z,49.71
2022-09-15T16:05:20.759Z,48.79
2022-09-15T16:07:49.831Z,48.20
2022-09-15T16:10:24.646Z,48.02
2022-09-15T16:12:52.153Z,47.62
2022-09-15T16:15:21.629Z,46.84
2022-09-15T16:17:49.517Z,46.41
2022-09-15T16:20:19.799Z,46.25
2022-09-15T16:22:47.173Z,46.50
2022-09-15T16:25:59.255Z,47.04
2022-09-15T16:28:32.137Z,47.09
2022-09-15T16:31:02.921Z,47.33
2022-09-15T16:33:33.409Z,47.71
2022-09-15T16:36:12.621Z,47.90
2022-09-15T16:38:41.181Z,47.72
2022-09-15T16:41:23.063Z,47.77
2022-09-15T16:43:50.582Z,47.93
2022-09-15T16:46:17.968Z,48.42
2022-09-15T16:48:48.133Z,48.15
2022-09-15T16:51:34.502Z,48.78
2022-09-15T16:54:01.649Z,49.02
2022-09-15T16:56:29.047Z,48.96
2022-09-15T16:59:00.219Z,49.42
2022-09-15T17:01:28.073Z,49.49
2022-09-15T17:03:55.920Z,49.71
2022-09-15T17:06:23.124Z,49.79
2022-09-15T17:08:50.700Z,50.50
2022-09-15T17:11:20.423Z,50.51
2022-09-15T17:13:47.813Z,50.60
2022-09-15T17:16:19.450Z,51.06
2022-09-15T17:18:47.687Z,50.89
2022-09-15T17:21:17.396Z,50.87
2022-09-15T17:23:49.888Z,51.24
2022-09-15T17:26:28.819Z,51.60
2022-09-15T17:28:57.872Z,51.45
2022-09-15T17:31:25.247Z,51.63
2022-09-15T17:33:52.700Z,51.53
2022-09-15T17:36:20.173Z,51.52
2022-09-15T17:38:48.966Z,52.09
2022-09-15T17:41:19.813Z,52.01
2022-09-15T17:43:47.680Z,52.60
2022-09-15T17:46:15.112Z,52.93
2022-09-15T17:48:42.279Z,52.75
2022-09-15T17:51:17.200Z,52.57
2022-09-15T17:53:46.725Z,52.25
2022-09-15T17:56:13.843Z,52.43
2022-09-15T17:58:41.930Z,52.16
2022-09-15T18:01:13.263Z,52.33
2022-09-15T18:03:42.674Z,52.38
2022-09-15T18:06:11.396Z,52.64
2022-09-15T18:08:38.542Z,52.66
2022-09-15T18:11:06.760Z,52.60
2022-09-15T18:13:34.167Z,52.89
2022-09-15T18:16:13.231Z,52.87
2022-09-15T18:18:41.064Z,52.73
2022-09-15T18:21:16.120Z,53.17
2022-09-15T18:23:45.099Z,53.10
2022-09-15T18:26:12.190Z,53.37
2022-09-15T18:28:39.264Z,53.41
2022-09-15T18:31:06.729Z,53.18
2022-09-15T18:33:33.821Z,53.14
2022-09-15T18:36:01.469Z,52.96
2022-09-15T18:38:28.725Z,53.15
2022-09-15T18:40:57.479Z,53.18
2022-09-15T18:43:27.493Z,52.55
2022-09-15T18:46:01.652Z,52.63
2022-09-15T18:48:29.297Z,52.12
2022-09-15T18:50:56.536Z,52.19
2022-09-15T18:53:23.986Z,51.90
2022-09-15T18:55:51.089Z,52.13
2022-09-15T18:58:19.317Z,52.33
2022-09-15T19:00:46.889Z,51.69
2022-09-15T19:03:14.302Z,51.64
2022-09-15T19:05:41.994Z,51.57
2022-09-15T19:08:09.339Z,51.73
2022-09-15T19:10:39.452Z,51.91
2022-09-15T19:13:06.767Z,52.10
2022-09-15T19:15:34.637Z,52.26
2022-09-15T19:18:02.145Z,52.33
2022-09-15T19:20:29.946Z,52.12
2022-09-15T19:22:58.175Z,52.01
2022-09-15T19:25:25.323Z,52.00
2022-09-15T19:27:52.469Z,51.74
2022-09-15T19:30:19.716Z,51.48
2022-09-15T19:32:46.798Z,50.92
2022-09-15T19:35:14.677Z,50.79
2022-09-15T19:37:42.606Z,50.78
2022-09-15T19:40:13.485Z,50.66
2022-09-15T19:42:43.336Z,50.77
2022-09-15T19:45:11.692Z,50.75
2022-09-15T19:47:40.133Z,50.56
2022-09-15T19:50:09.035Z,50.08
2022-09-15T19:52:36.329Z,50.19
2022-09-15T19:55:05.344Z,50.32
2022-09-15T19:57:32.419Z,50.38
2022-09-15T19:59:59.552Z,50.31
2022-09-15T20:02:26.809Z,50.40
2022-09-15T20:04:54.000Z,50.31
2022-09-15T20:07:21.043Z,50.19
2022-09-15T20:09:48.058Z,50.00
2022-09-15T20:12:15.263Z,49.85
2022-09-15T20:14:42.384Z,49.75
2022-09-15T20:17:09.548Z,49.99
2022-09-15T20:19:37.168Z,50.23
2022-09-15T20:22:04.942Z,50.37
2022-09-15T20:24:32.012Z,50.29
2022-09-15T20:26:59.292Z,50.05
2022-09-15T20:29:26.418Z,49.74
2022-09-15T20:31:53.980Z,49.78
2022-09-15T20:34:21.083Z,49.86
2022-09-15T20:36:48.243Z,49.70
2022-09-15T20:39:18.794Z,50.02
2022-09-15T20:41:45.977Z,50.03
2022-09-15T20:44:13.449Z,50.07
2022-09-15T20:46:41.472Z,50.28
2022-09-15T20:49:09.547Z,50.00
2022-09-15T20:51:36.631Z,49.85
2022-09-15T20:54:04.957Z,49.70
2022-09-15T20:56:35.095Z,49.69
2022-09-15T20:59:04.232Z,49.72
2022-09-15T21:01:38.686Z,49.56
2022-09-15T21:04:10.613Z,49.47
2022-09-15T21:06:38.838Z,49.51
2022-09-15T21:09:06.823Z,49.67
2022-09-15T21:11:34.981Z,50.30
2022-09-15T21:14:02.546Z,51.16
2022-09-15T21:16:30.096Z,51.91
2022-09-15T21:18:58.690Z,52.58
2022-09-15T21:21:30.081Z,53.52
2022-09-15T21:24:01.815Z,54.42
2022-09-15T21:26:35.122Z,54.81
2022-09-15T21:29:02.846Z,54.98
2022-09-15T21:31:32.988Z,54.53
2022-09-15T21:34:00.584Z,54.65
2022-09-15T21:36:31.248Z,54.94
2022-09-15T21:38:59.547Z,54.96
2022-09-15T21:41:30.131Z,55.04
2022-09-15T21:43:59.013Z,55.20
2022-09-15T21:46:29.444Z,54.94
2022-09-15T21:48:58.684Z,54.95
2022-09-15T21:51:28.457Z,54.91
2022-09-15T21:53:57.926Z,54.44
2022-09-15T21:56:26.442Z,54.39
2022-09-15T21:58:54.284Z,54.43
2022-09-15T22:01:28.209Z,53.87
2022-09-15T22:04:00.290Z,53.70
2022-09-15T22:06:34.820Z,53.47
2022-09-15T22:09:06.882Z,53.32
2022-09-15T22:11:35.208Z,53.35
2022-09-15T22:14:04.382Z,53.18
2022-09-15T22:16:31.803Z,53.25
2022-09-15T22:19:00.134Z,52.98
2022-09-15T22:21:31.506Z,53.05
2022-09-15T22:23:59.737Z,52.93
2022-09-15T22:26:30.918Z,52.85
2022-09-15T22:29:00.291Z,52.57
2022-09-15T22:31:28.793Z,52.47
2022-09-15T22:33:56.476Z,52.18
2022-09-15T22:36:29.700Z,52.25
2022-09-15T22:39:05.483Z,52.60
2022-09-15T22:41:36.982Z,52.76
2022-09-15T22:44:05.944Z,52.60
2022-09-15T22:46:33.705Z,52.24
2022-09-15T22:49:01.380Z,52.27
2022-09-15T22:51:28.753Z,52.18
2022-09-15T22:53:57.387Z,52.00
2022-09-15T22:56:26.481Z,51.90
2022-09-15T22:58:55.993Z,51.82
2022-09-15T23:01:30.651Z,52.48
2022-09-15T23:04:01.173Z,52.43
2022-09-15T23:06:31.970Z,52.12
2022-09-15T23:09:02.403Z,52.27
2022-09-15T23:11:32.395Z,52.43
2022-09-15T23:13:59.611Z,52.47
2022-09-15T23:16:28.560Z,52.92
2022-09-15T23:18:55.696Z,52.85
2022-09-15T23:21:22.974Z,52.37
2022-09-15T23:23:52.847Z,52.15
2022-09-15T23:26:22.789Z,52.04
2022-09-15T23:28:50.089Z,52.32
2022-09-15T23:31:17.946Z,52.22
2022-09-15T23:33:45.265Z,52.13
2022-09-15T23:36:15.308Z,52.35
2022-09-15T23:38:44.540Z,51.44
2022-09-15T23:41:14.090Z,52.07
2022-09-15T23:43:41.582Z,52.06
2022-09-15T23:46:09.220Z,51.46
2022-09-15T23:48:36.907Z,51.08
2022-09-15T23:51:05.429Z,51.58
2022-09-15T23:53:32.754Z,51.39
2022-09-15T23:55:59.953Z,51.16
2022-09-15T23:58:27.425Z,51.21
